sensor_id;sensor_type;location;lat;lon;timestamp;P1;durP1;ratioP1;P2;durP2;ratioP2
14316;SDS011;7242;50.858;6.586;2023-03-13T00:01:10;12.43;;;3.27;;
14316;SDS011;7242;50.858;6.586;2023-03-13T00:04:20;17.67;;;3.93;;
14316;SDS011;7242;50.858;6.586;2023-03-13T00:07:20;14.70;;;3.60;;
14316;SDS011;7242;50.858;6.586;2023-03-13T00:10:21;15.87;;;3.43;;
14316;SDS011;7242;50.858;6.586;2023-03-13T00:13:21;16.27;;;3.70;;
14316;SDS011;7242;50.858;6.586;2023-03-13T00:16:22;11.43;;;3.23;;
14316;SDS011;7242;50.858;6.586;2023-03-13T00:19:23;9.67;;;3.00;;
14316;SDS011;7242;50.858;6.586;2023-03-13T00:22:24;15.87;;;3.87;;
14316;SDS011;7242;50.858;6.586;2023-03-13T00:25:25;15.03;;;3.40;;
14316;SDS011;7242;50.858;6.586;2023-03-13T00:28:29;13.10;;;3.10;;
14316;SDS011;7242;50.858;6.586;2023-03-13T00:31:31;17.03;;;2.93;;
14316;SDS011;7242;50.858;6.586;2023-03-13T00:34:31;16.80;;;3.40;;
14316;SDS011;7242;50.858;6.586;2023-03-13T00:37:32;14.93;;;3.30;;
14316;SDS011;7242;50.858;6.586;2023-03-13T00:40:33;15.70;;;3.07;;
14316;SDS011;7242;50.858;6.586;2023-03-13T00:43:34;12.87;;;3.60;;
14316;SDS011;7242;50.858;6.586;2023-03-13T00:46:35;12.80;;;3.30;;
14316;SDS011;7242;50.858;6.586;2023-03-13T00:49:36;11.43;;;2.83;;
14316;SDS011;7242;50.858;6.586;2023-03-13T00:52:36;12.70;;;2.67;;
14316;SDS011;7242;50.858;6.586;2023-03-13T00:55:37;11.07;;;2.80;;
14316;SDS011;7242;50.858;6.586;2023-03-13T00:58:38;11.63;;;2.80;;
14316;SDS011;7242;50.858;6.586;2023-03-13T01:01:41;10.07;;;2.93;;
14316;SDS011;7242;50.858;6.586;2023-03-13T01:04:42;12.17;;;2.97;;
14316;SDS011;7242;50.858;6.586;2023-03-13T01:07:42;12.20;;;2.73;;
14316;SDS011;7242;50.858;6.586;2023-03-13T01:10:43;12.27;;;3.17;;
14316;SDS011;7242;50.858;6.586;2023-03-13T01:13:44;10.00;;;2.60;;
14316;SDS011;7242;50.858;6.586;2023-03-13T01:16:46;12.27;;;2.93;;
14316;SDS011;7242;50.858;6.586;2023-03-13T01:19:47;13.17;;;2.70;;
14316;SDS011;7242;50.858;6.586;2023-03-13T01:22:47;10.10;;;2.30;;
14316;SDS011;7242;50.858;6.586;2023-03-13T01:25:48;12.30;;;2.90;;
14316;SDS011;7242;50.858;6.586;2023-03-13T01:28:49;10.80;;;2.63;;
14316;SDS011;7242;50.858;6.586;2023-03-13T01:31:51;10.77;;;2.57;;
14316;SDS011;7242;50.858;6.586;2023-03-13T01:34:51;9.30;;;2.50;;
14316;SDS011;7242;50.858;6.586;2023-03-13T01:37:52;9.83;;;2.83;;
14316;SDS011;7242;50.858;6.586;2023-03-13T01:40:53;9.13;;;2.50;;
14316;SDS011;7242;50.858;6.586;2023-03-13T01:43:54;8.60;;;2.67;;
14316;SDS011;7242;50.858;6.586;2023-03-13T01:46:55;8.93;;;2.13;;
14316;SDS011;7242;50.858;6.586;2023-03-13T01:49:59;8.50;;;2.00;;
14316;SDS011;7242;50.858;6.586;2023-03-13T01:53:11;8.77;;;2.40;;
14316;SDS011;7242;50.858;6.586;2023-03-13T01:56:23;7.77;;;2.20;;
14316;SDS011;7242;50.858;6.586;2023-03-13T01:59:33;6.23;;;1.70;;
14316;SDS011;7242;50.858;6.586;2023-03-13T02:02:40;5.07;;;1.50;;
14316;SDS011;7242;50.858;6.586;2023-03-13T02:05:45;4.27;;;1.50;;
14316;SDS011;7242;50.858;6.586;2023-03-13T02:08:58;5.40;;;1.60;;
14316;SDS011;7242;50.858;6.586;2023-03-13T02:12:13;5.83;;;1.60;;
14316;SDS011;7242;50.858;6.586;2023-03-13T02:15:19;3.17;;;1.33;;
14316;SDS011;7242;50.858;6.586;2023-03-13T02:18:22;3.73;;;1.27;;
14316;SDS011;7242;50.858;6.586;2023-03-13T02:21:39;4.07;;;1.20;;
14316;SDS011;7242;50.858;6.586;2023-03-13T02:31:07;2.93;;;1.13;;
14316;SDS011;7242;50.858;6.586;2023-03-13T02:34:08;3.57;;;0.90;;
14316;SDS011;7242;50.858;6.586;2023-03-13T02:37:11;2.67;;;0.77;;
14316;SDS011;7242;50.858;6.586;2023-03-13T02:40:15;2.80;;;0.87;;
14316;SDS011;7242;50.858;6.586;2023-03-13T02:43:23;2.43;;;0.70;;
14316;SDS011;7242;50.858;6.586;2023-03-13T02:46:26;2.13;;;0.67;;
14316;SDS011;7242;50.858;6.586;2023-03-13T02:49:28;1.53;;;0.70;;
14316;SDS011;7242;50.858;6.586;2023-03-13T02:52:32;1.83;;;0.60;;
14316;SDS011;7242;50.858;6.586;2023-03-13T02:55:38;1.50;;;0.67;;
14316;SDS011;7242;50.858;6.586;2023-03-13T02:58:41;0.87;;;0.63;;
14316;SDS011;7242;50.858;6.586;2023-03-13T03:01:43;1.63;;;0.50;;
14316;SDS011;7242;50.858;6.586;2023-03-13T03:04:44;0.70;;;0.50;;
14316;SDS011;7242;50.858;6.586;2023-03-13T03:07:45;1.20;;;0.60;;
14316;SDS011;7242;50.858;6.586;2023-03-13T03:10:46;0.73;;;0.50;;
14316;SDS011;7242;50.858;6.586;2023-03-13T03:13:47;0.90;;;0.50;;
14316;SDS011;7242;50.858;6.586;2023-03-13T03:16:50;0.77;;;0.50;;
14316;SDS011;7242;50.858;6.586;2023-03-13T03:19:51;1.07;;;0.70;;
14316;SDS011;7242;50.858;6.586;2023-03-13T03:22:53;0.40;;;0.40;;
14316;SDS011;7242;50.858;6.586;2023-03-13T03:25:54;0.60;;;0.50;;
14316;SDS011;7242;50.858;6.586;2023-03-13T03:28:55;1.17;;;0.67;;
14316;SDS011;7242;50.858;6.586;2023-03-13T03:31:56;0.80;;;0.60;;
14316;SDS011;7242;50.858;6.586;2023-03-13T03:34:57;0.50;;;0.50;;
14316;SDS011;7242;50.858;6.586;2023-03-13T03:37:58;0.50;;;0.50;;
14316;SDS011;7242;50.858;6.586;2023-03-13T03:40:59;0.70;;;0.70;;
14316;SDS011;7242;50.858;6.586;2023-03-13T03:44:00;0.90;;;0.70;;
14316;SDS011;7242;50.858;6.586;2023-03-13T03:47:12;1.53;;;0.73;;
14316;SDS011;7242;50.858;6.586;2023-03-13T03:50:17;1.23;;;0.70;;
14316;SDS011;7242;50.858;6.586;2023-03-13T03:53:27;1.60;;;1.07;;
14316;SDS011;7242;50.858;6.586;2023-03-13T03:56:28;1.97;;;0.77;;
14316;SDS011;7242;50.858;6.586;2023-03-13T03:59:31;0.90;;;0.80;;
14316;SDS011;7242;50.858;6.586;2023-03-13T04:02:36;1.00;;;0.70;;
14316;SDS011;7242;50.858;6.586;2023-03-13T04:05:37;1.07;;;0.60;;
14316;SDS011;7242;50.858;6.586;2023-03-13T04:08:38;0.90;;;0.60;;
14316;SDS011;7242;50.858;6.586;2023-03-13T04:11:40;0.60;;;0.57;;
14316;SDS011;7242;50.858;6.586;2023-03-13T04:14:43;1.13;;;0.53;;
14316;SDS011;7242;50.858;6.586;2023-03-13T04:17:46;1.23;;;0.70;;
14316;SDS011;7242;50.858;6.586;2023-03-13T04:20:48;0.57;;;0.53;;
14316;SDS011;7242;50.858;6.586;2023-03-13T04:23:49;0.60;;;0.60;;
14316;SDS011;7242;50.858;6.586;2023-03-13T04:26:51;0.60;;;0.60;;
14316;SDS011;7242;50.858;6.586;2023-03-13T04:29:52;1.60;;;0.50;;
14316;SDS011;7242;50.858;6.586;2023-03-13T04:33:19;0.70;;;0.50;;
14316;SDS011;7242;50.858;6.586;2023-03-13T04:36:35;2.20;;;0.50;;
14316;SDS011;7242;50.858;6.586;2023-03-13T04:39:45;1.00;;;0.53;;
14316;SDS011;7242;50.858;6.586;2023-03-13T04:43:08;1.30;;;0.53;;
14316;SDS011;7242;50.858;6.586;2023-03-13T04:46:27;1.80;;;0.63;;
14316;SDS011;7242;50.858;6.586;2023-03-13T04:49:51;1.30;;;0.60;;
14316;SDS011;7242;50.858;6.586;2023-03-13T04:53:13;1.13;;;0.70;;
14316;SDS011;7242;50.858;6.586;2023-03-13T04:56:40;0.70;;;0.63;;
14316;SDS011;7242;50.858;6.586;2023-03-13T05:00:00;0.70;;;0.60;;
14316;SDS011;7242;50.858;6.586;2023-03-13T05:03:19;0.70;;;0.70;;
14316;SDS011;7242;50.858;6.586;2023-03-13T05:06:38;0.87;;;0.70;;
14316;SDS011;7242;50.858;6.586;2023-03-13T05:10:05;0.60;;;0.60;;
14316;SDS011;7242;50.858;6.586;2023-03-13T05:13:17;0.70;;;0.70;;
14316;SDS011;7242;50.858;6.586;2023-03-13T05:16:51;1.07;;;0.80;;
14316;SDS011;7242;50.858;6.586;2023-03-13T05:20:10;1.30;;;0.87;;
14316;SDS011;7242;50.858;6.586;2023-03-13T05:23:26;1.00;;;0.80;;
14316;SDS011;7242;50.858;6.586;2023-03-13T05:26:35;0.70;;;0.70;;
14316;SDS011;7242;50.858;6.586;2023-03-13T05:29:54;1.20;;;0.80;;
14316;SDS011;7242;50.858;6.586;2023-03-13T05:33:09;0.77;;;0.70;;
14316;SDS011;7242;50.858;6.586;2023-03-13T05:36:17;3.13;;;0.87;;
14316;SDS011;7242;50.858;6.586;2023-03-13T05:39:39;1.53;;;0.83;;
14316;SDS011;7242;50.858;6.586;2023-03-13T05:42:53;1.00;;;0.90;;
14316;SDS011;7242;50.858;6.586;2023-03-13T05:46:13;0.90;;;0.90;;
14316;SDS011;7242;50.858;6.586;2023-03-13T05:49:43;1.50;;;0.97;;
14316;SDS011;7242;50.858;6.586;2023-03-13T05:53:05;0.90;;;0.80;;
14316;SDS011;7242;50.858;6.586;2023-03-13T05:56:15;1.20;;;0.80;;
14316;SDS011;7242;50.858;6.586;2023-03-13T05:59:24;1.50;;;0.83;;
14316;SDS011;7242;50.858;6.586;2023-03-13T06:02:51;0.93;;;0.83;;
14316;SDS011;7242;50.858;6.586;2023-03-13T06:05:59;0.90;;;0.90;;
14316;SDS011;7242;50.858;6.586;2023-03-13T06:09:11;1.43;;;0.90;;
14316;SDS011;7242;50.858;6.586;2023-03-13T06:12:12;0.93;;;0.90;;
14316;SDS011;7242;50.858;6.586;2023-03-13T06:15:13;1.10;;;1.00;;
14316;SDS011;7242;50.858;6.586;2023-03-13T06:18:27;1.70;;;1.10;;
14316;SDS011;7242;50.858;6.586;2023-03-13T06:21:28;1.07;;;0.90;;
14316;SDS011;7242;50.858;6.586;2023-03-13T06:24:29;1.73;;;0.90;;
14316;SDS011;7242;50.858;6.586;2023-03-13T06:27:30;0.87;;;0.87;;
14316;SDS011;7242;50.858;6.586;2023-03-13T06:30:30;2.93;;;1.20;;
14316;SDS011;7242;50.858;6.586;2023-03-13T06:33:32;2.93;;;1.23;;
14316;SDS011;7242;50.858;6.586;2023-03-13T06:36:33;1.37;;;1.20;;
14316;SDS011;7242;50.858;6.586;2023-03-13T06:39:34;1.53;;;1.23;;
14316;SDS011;7242;50.858;6.586;2023-03-13T06:42:35;2.53;;;1.30;;
14316;SDS011;7242;50.858;6.586;2023-03-13T06:45:35;3.43;;;1.30;;
14316;SDS011;7242;50.858;6.586;2023-03-13T06:48:36;5.33;;;1.90;;
14316;SDS011;7242;50.858;6.586;2023-03-13T06:51:37;4.27;;;1.73;;
14316;SDS011;7242;50.858;6.586;2023-03-13T06:54:38;3.07;;;1.70;;
14316;SDS011;7242;50.858;6.586;2023-03-13T06:57:39;4.30;;;1.70;;
14316;SDS011;7242;50.858;6.586;2023-03-13T07:00:40;6.43;;;1.90;;
14316;SDS011;7242;50.858;6.586;2023-03-13T07:03:43;2.90;;;1.70;;
14316;SDS011;7242;50.858;6.586;2023-03-13T07:06:44;5.53;;;1.70;;
14316;SDS011;7242;50.858;6.586;2023-03-13T07:09:45;2.77;;;1.80;;
14316;SDS011;7242;50.858;6.586;2023-03-13T07:12:46;3.93;;;1.93;;
14316;SDS011;7242;50.858;6.586;2023-03-13T07:15:47;4.07;;;1.60;;
14316;SDS011;7242;50.858;6.586;2023-03-13T07:18:49;3.33;;;1.60;;
14316;SDS011;7242;50.858;6.586;2023-03-13T07:21:50;4.20;;;2.00;;
14316;SDS011;7242;50.858;6.586;2023-03-13T07:24:52;4.17;;;1.87;;
14316;SDS011;7242;50.858;6.586;2023-03-13T07:27:53;3.83;;;1.60;;
14316;SDS011;7242;50.858;6.586;2023-03-13T07:30:54;4.17;;;2.00;;
14316;SDS011;7242;50.858;6.586;2023-03-13T07:33:54;4.70;;;2.07;;
14316;SDS011;7242;50.858;6.586;2023-03-13T07:36:55;5.10;;;1.93;;
14316;SDS011;7242;50.858;6.586;2023-03-13T07:39:56;5.07;;;2.17;;
14316;SDS011;7242;50.858;6.586;2023-03-13T07:42:57;5.07;;;2.10;;
14316;SDS011;7242;50.858;6.586;2023-03-13T07:46:05;4.33;;;1.83;;
14316;SDS011;7242;50.858;6.586;2023-03-13T07:49:07;4.47;;;2.07;;
14316;SDS011;7242;50.858;6.586;2023-03-13T07:52:07;4.27;;;2.00;;
14316;SDS011;7242;50.858;6.586;2023-03-13T07:55:09;4.00;;;1.77;;
14316;SDS011;7242;50.858;6.586;2023-03-13T07:58:09;4.60;;;1.97;;
14316;SDS011;7242;50.858;6.586;2023-03-13T08:01:11;4.10;;;2.20;;
14316;SDS011;7242;50.858;6.586;2023-03-13T08:04:16;4.63;;;2.00;;
14316;SDS011;7242;50.858;6.586;2023-03-13T08:07:18;5.80;;;1.97;;
14316;SDS011;7242;50.858;6.586;2023-03-13T08:10:19;4.47;;;2.10;;
14316;SDS011;7242;50.858;6.586;2023-03-13T08:13:20;5.30;;;2.20;;
14316;SDS011;7242;50.858;6.586;2023-03-13T08:16:24;4.23;;;2.00;;
14316;SDS011;7242;50.858;6.586;2023-03-13T08:19:26;5.10;;;2.43;;
14316;SDS011;7242;50.858;6.586;2023-03-13T08:22:27;5.33;;;2.13;;
14316;SDS011;7242;50.858;6.586;2023-03-13T08:25:28;4.23;;;2.10;;
14316;SDS011;7242;50.858;6.586;2023-03-13T08:28:28;5.30;;;2.07;;
14316;SDS011;7242;50.858;6.586;2023-03-13T08:31:33;5.73;;;2.27;;
14316;SDS011;7242;50.858;6.586;2023-03-13T08:34:37;3.47;;;1.90;;
14316;SDS011;7242;50.858;6.586;2023-03-13T08:37:38;3.70;;;2.13;;
14316;SDS011;7242;50.858;6.586;2023-03-13T08:40:38;3.90;;;2.13;;
14316;SDS011;7242;50.858;6.586;2023-03-13T08:43:39;6.30;;;2.07;;
14316;SDS011;7242;50.858;6.586;2023-03-13T08:46:40;3.80;;;1.93;;
14316;SDS011;7242;50.858;6.586;2023-03-13T08:49:43;3.97;;;1.90;;
14316;SDS011;7242;50.858;6.586;2023-03-13T08:52:44;3.90;;;2.00;;
14316;SDS011;7242;50.858;6.586;2023-03-13T08:55:51;5.50;;;1.97;;
14316;SDS011;7242;50.858;6.586;2023-03-13T08:58:55;3.00;;;1.60;;
14316;SDS011;7242;50.858;6.586;2023-03-13T09:01:58;3.37;;;1.57;;
14316;SDS011;7242;50.858;6.586;2023-03-13T09:04:59;3.40;;;1.67;;
14316;SDS011;7242;50.858;6.586;2023-03-13T09:08:00;3.70;;;1.50;;
14316;SDS011;7242;50.858;6.586;2023-03-13T09:11:02;3.70;;;1.67;;
14316;SDS011;7242;50.858;6.586;2023-03-13T09:14:05;2.97;;;1.80;;
14316;SDS011;7242;50.858;6.586;2023-03-13T09:17:06;4.00;;;1.67;;
14316;SDS011;7242;50.858;6.586;2023-03-13T09:20:07;2.57;;;1.53;;
14316;SDS011;7242;50.858;6.586;2023-03-13T09:23:08;2.20;;;1.50;;
14316;SDS011;7242;50.858;6.586;2023-03-13T09:26:09;3.67;;;1.50;;
14316;SDS011;7242;50.858;6.586;2023-03-13T09:29:11;2.10;;;1.70;;
14316;SDS011;7242;50.858;6.586;2023-03-13T09:32:11;3.53;;;1.47;;
14316;SDS011;7242;50.858;6.586;2023-03-13T09:35:12;1.93;;;1.40;;
14316;SDS011;7242;50.858;6.586;2023-03-13T09:38:13;2.73;;;1.50;;
14316;SDS011;7242;50.858;6.586;2023-03-13T09:44:27;3.27;;;1.50;;
14316;SDS011;7242;50.858;6.586;2023-03-13T09:47:51;2.17;;;1.60;;
14316;SDS011;7242;50.858;6.586;2023-03-13T09:57:34;2.80;;;1.20;;
14316;SDS011;7242;50.858;6.586;2023-03-13T10:00:36;2.57;;;1.20;;
14316;SDS011;7242;50.858;6.586;2023-03-13T10:03:41;2.00;;;1.27;;
14316;SDS011;7242;50.858;6.586;2023-03-13T10:06:51;2.13;;;1.10;;
14316;SDS011;7242;50.858;6.586;2023-03-13T10:09:52;2.63;;;1.07;;
14316;SDS011;7242;50.858;6.586;2023-03-13T10:12:56;2.43;;;0.87;;
14316;SDS011;7242;50.858;6.586;2023-03-13T10:19:39;1.07;;;0.90;;
14316;SDS011;7242;50.858;6.586;2023-03-13T10:22:43;1.53;;;0.90;;
14316;SDS011;7242;50.858;6.586;2023-03-13T10:25:48;1.10;;;1.00;;
14316;SDS011;7242;50.858;6.586;2023-03-13T10:28:51;1.27;;;0.90;;
14316;SDS011;7242;50.858;6.586;2023-03-13T10:35:04;0.97;;;0.80;;
14316;SDS011;7242;50.858;6.586;2023-03-13T10:38:17;1.30;;;0.80;;
14316;SDS011;7242;50.858;6.586;2023-03-13T10:44:21;1.53;;;0.90;;
14316;SDS011;7242;50.858;6.586;2023-03-13T10:47:23;2.10;;;0.80;;
14316;SDS011;7242;50.858;6.586;2023-03-13T10:50:24;1.27;;;0.70;;
14316;SDS011;7242;50.858;6.586;2023-03-13T10:56:30;0.80;;;0.70;;
14316;SDS011;7242;50.858;6.586;2023-03-13T10:59:31;0.70;;;0.70;;
14316;SDS011;7242;50.858;6.586;2023-03-13T11:05:38;1.23;;;0.63;;
14316;SDS011;7242;50.858;6.586;2023-03-13T11:08:44;1.10;;;0.70;;
14316;SDS011;7242;50.858;6.586;2023-03-13T11:12:04;0.70;;;0.60;;
14316;SDS011;7242;50.858;6.586;2023-03-13T11:15:15;0.70;;;0.60;;
14316;SDS011;7242;50.858;6.586;2023-03-13T11:18:23;0.50;;;0.50;;
14316;SDS011;7242;50.858;6.586;2023-03-13T11:21:54;0.80;;;0.50;;
14316;SDS011;7242;50.858;6.586;2023-03-13T11:34:27;0.30;;;0.30;;
14316;SDS011;7242;50.858;6.586;2023-03-13T11:37:38;0.33;;;0.30;;
14316;SDS011;7242;50.858;6.586;2023-03-13T11:40:49;2.00;;;0.40;;
14316;SDS011;7242;50.858;6.586;2023-03-13T11:44:15;1.13;;;0.47;;
14316;SDS011;7242;50.858;6.586;2023-03-13T11:54:08;0.80;;;0.50;;
14316;SDS011;7242;50.858;6.586;2023-03-13T12:00:30;0.70;;;0.50;;
14316;SDS011;7242;50.858;6.586;2023-03-13T12:07:20;0.70;;;0.60;;
14316;SDS011;7242;50.858;6.586;2023-03-13T12:10:41;0.50;;;0.50;;
14316;SDS011;7242;50.858;6.586;2023-03-13T12:13:48;0.50;;;0.50;;
14316;SDS011;7242;50.858;6.586;2023-03-13T12:17:05;0.70;;;0.70;;
14316;SDS011;7242;50.858;6.586;2023-03-13T12:20:25;0.70;;;0.60;;
14316;SDS011;7242;50.858;6.586;2023-03-13T12:23:45;1.87;;;0.70;;
14316;SDS011;7242;50.858;6.586;2023-03-13T12:30:44;0.80;;;0.60;;
14316;SDS011;7242;50.858;6.586;2023-03-13T12:37:17;1.93;;;0.60;;
14316;SDS011;7242;50.858;6.586;2023-03-13T12:43:51;1.13;;;0.70;;
14316;SDS011;7242;50.858;6.586;2023-03-13T12:53:44;1.03;;;0.60;;
14316;SDS011;7242;50.858;6.586;2023-03-13T13:00:46;1.27;;;0.70;;
14316;SDS011;7242;50.858;6.586;2023-03-13T13:06:50;0.80;;;0.70;;
14316;SDS011;7242;50.858;6.586;2023-03-13T13:16:16;0.67;;;0.50;;
14316;SDS011;7242;50.858;6.586;2023-03-13T13:25:36;1.27;;;0.80;;
14316;SDS011;7242;50.858;6.586;2023-03-13T13:28:37;0.97;;;0.53;;
14316;SDS011;7242;50.858;6.586;2023-03-13T13:37:52;1.00;;;0.70;;
14316;SDS011;7242;50.858;6.586;2023-03-13T13:51:39;1.23;;;0.80;;
14316;SDS011;7242;50.858;6.586;2023-03-13T13:57:44;1.07;;;0.60;;
14316;SDS011;7242;50.858;6.586;2023-03-13T14:00:53;1.13;;;0.60;;
14316;SDS011;7242;50.858;6.586;2023-03-13T14:04:10;0.77;;;0.57;;
14316;SDS011;7242;50.858;6.586;2023-03-13T14:07:15;1.23;;;0.60;;
14316;SDS011;7242;50.858;6.586;2023-03-13T14:10:33;0.63;;;0.40;;
14316;SDS011;7242;50.858;6.586;2023-03-13T14:13:37;0.90;;;0.60;;
14316;SDS011;7242;50.858;6.586;2023-03-13T14:16:37;0.50;;;0.50;;
14316;SDS011;7242;50.858;6.586;2023-03-13T14:19:42;0.73;;;0.50;;
14316;SDS011;7242;50.858;6.586;2023-03-13T14:22:43;1.40;;;0.60;;
14316;SDS011;7242;50.858;6.586;2023-03-13T14:25:49;1.17;;;0.47;;
14316;SDS011;7242;50.858;6.586;2023-03-13T14:28:51;0.90;;;0.60;;
14316;SDS011;7242;50.858;6.586;2023-03-13T14:32:00;0.93;;;0.40;;
14316;SDS011;7242;50.858;6.586;2023-03-13T14:35:01;2.00;;;0.60;;
14316;SDS011;7242;50.858;6.586;2023-03-13T14:38:04;1.00;;;0.60;;
14316;SDS011;7242;50.858;6.586;2023-03-13T14:41:05;1.13;;;0.60;;
14316;SDS011;7242;50.858;6.586;2023-03-13T14:44:23;0.57;;;0.57;;
14316;SDS011;7242;50.858;6.586;2023-03-13T14:47:28;1.33;;;0.50;;
14316;SDS011;7242;50.858;6.586;2023-03-13T14:50:31;0.83;;;0.50;;
14316;SDS011;7242;50.858;6.586;2023-03-13T14:53:34;0.37;;;0.37;;
14316;SDS011;7242;50.858;6.586;2023-03-13T14:56:36;1.83;;;0.50;;
14316;SDS011;7242;50.858;6.586;2023-03-13T14:59:41;0.50;;;0.50;;
14316;SDS011;7242;50.858;6.586;2023-03-13T15:02:42;0.73;;;0.57;;
14316;SDS011;7242;50.858;6.586;2023-03-13T15:05:44;1.83;;;0.70;;
14316;SDS011;7242;50.858;6.586;2023-03-13T15:08:49;1.27;;;0.60;;
14316;SDS011;7242;50.858;6.586;2023-03-13T15:12:13;1.27;;;0.60;;
14316;SDS011;7242;50.858;6.586;2023-03-13T15:15:16;1.53;;;0.70;;
14316;SDS011;7242;50.858;6.586;2023-03-13T15:18:18;2.10;;;0.60;;
14316;SDS011;7242;50.858;6.586;2023-03-13T15:24:22;1.37;;;0.70;;
14316;SDS011;7242;50.858;6.586;2023-03-13T15:27:24;2.60;;;0.70;;
14316;SDS011;7242;50.858;6.586;2023-03-13T15:30:25;1.30;;;0.70;;
14316;SDS011;7242;50.858;6.586;2023-03-13T15:33:27;1.10;;;0.80;;
14316;SDS011;7242;50.858;6.586;2023-03-13T15:36:29;0.90;;;0.83;;
14316;SDS011;7242;50.858;6.586;2023-03-13T15:39:30;3.40;;;0.90;;
14316;SDS011;7242;50.858;6.586;2023-03-13T15:42:31;1.87;;;0.90;;
14316;SDS011;7242;50.858;6.586;2023-03-13T15:45:32;2.93;;;0.90;;
14316;SDS011;7242;50.858;6.586;2023-03-13T15:48:35;3.13;;;1.13;;
14316;SDS011;7242;50.858;6.586;2023-03-13T15:51:37;2.60;;;1.00;;
14316;SDS011;7242;50.858;6.586;2023-03-13T15:54:38;1.73;;;1.07;;
14316;SDS011;7242;50.858;6.586;2023-03-13T15:57:45;1.70;;;1.00;;
14316;SDS011;7242;50.858;6.586;2023-03-13T16:00:48;3.00;;;1.17;;
14316;SDS011;7242;50.858;6.586;2023-03-13T16:03:49;4.00;;;1.20;;
14316;SDS011;7242;50.858;6.586;2023-03-13T16:06:50;1.47;;;1.00;;
14316;SDS011;7242;50.858;6.586;2023-03-13T16:09:51;2.93;;;1.30;;
14316;SDS011;7242;50.858;6.586;2023-03-13T16:12:52;4.47;;;1.20;;
14316;SDS011;7242;50.858;6.586;2023-03-13T16:15:53;3.10;;;1.30;;
14316;SDS011;7242;50.858;6.586;2023-03-13T16:18:56;2.70;;;1.07;;
14316;SDS011;7242;50.858;6.586;2023-03-13T16:21:57;2.67;;;1.40;;
14316;SDS011;7242;50.858;6.586;2023-03-13T16:24:58;3.23;;;1.20;;
14316;SDS011;7242;50.858;6.586;2023-03-13T16:27:58;2.47;;;1.20;;
14316;SDS011;7242;50.858;6.586;2023-03-13T16:30:59;2.53;;;1.10;;
14316;SDS011;7242;50.858;6.586;2023-03-13T16:34:00;3.13;;;1.30;;
14316;SDS011;7242;50.858;6.586;2023-03-13T16:37:08;3.47;;;1.13;;
14316;SDS011;7242;50.858;6.586;2023-03-13T16:40:15;2.57;;;1.10;;
14316;SDS011;7242;50.858;6.586;2023-03-13T16:43:17;3.20;;;1.13;;
14316;SDS011;7242;50.858;6.586;2023-03-13T16:46:18;3.37;;;1.30;;
14316;SDS011;7242;50.858;6.586;2023-03-13T16:49:21;3.20;;;1.13;;
14316;SDS011;7242;50.858;6.586;2023-03-13T16:52:21;3.70;;;1.27;;
14316;SDS011;7242;50.858;6.586;2023-03-13T16:55:22;4.73;;;1.50;;
14316;SDS011;7242;50.858;6.586;2023-03-13T16:58:27;3.97;;;1.30;;
14316;SDS011;7242;50.858;6.586;2023-03-13T17:01:27;4.30;;;1.50;;
14316;SDS011;7242;50.858;6.586;2023-03-13T17:04:29;4.40;;;1.40;;
14316;SDS011;7242;50.858;6.586;2023-03-13T17:07:29;4.13;;;1.40;;
14316;SDS011;7242;50.858;6.586;2023-03-13T17:10:31;5.27;;;1.70;;
14316;SDS011;7242;50.858;6.586;2023-03-13T17:13:32;3.30;;;1.30;;
14316;SDS011;7242;50.858;6.586;2023-03-13T17:16:34;4.60;;;1.30;;
14316;SDS011;7242;50.858;6.586;2023-03-13T17:19:38;3.50;;;1.73;;
14316;SDS011;7242;50.858;6.586;2023-03-13T17:22:39;3.03;;;1.57;;
14316;SDS011;7242;50.858;6.586;2023-03-13T17:25:40;3.33;;;1.50;;
14316;SDS011;7242;50.858;6.586;2023-03-13T17:28:41;2.67;;;1.40;;
14316;SDS011;7242;50.858;6.586;2023-03-13T17:31:43;3.47;;;1.23;;
14316;SDS011;7242;50.858;6.586;2023-03-13T17:34:44;5.70;;;1.90;;
14316;SDS011;7242;50.858;6.586;2023-03-13T17:37:44;2.83;;;1.47;;
14316;SDS011;7242;50.858;6.586;2023-03-13T17:40:46;4.13;;;1.50;;
14316;SDS011;7242;50.858;6.586;2023-03-13T17:43:46;2.60;;;1.47;;
14316;SDS011;7242;50.858;6.586;2023-03-13T17:46:47;4.47;;;1.80;;
14316;SDS011;7242;50.858;6.586;2023-03-13T17:49:50;4.07;;;2.20;;
14316;SDS011;7242;50.858;6.586;2023-03-13T17:52:50;4.17;;;1.70;;
14316;SDS011;7242;50.858;6.586;2023-03-13T17:55:51;3.60;;;1.83;;
14316;SDS011;7242;50.858;6.586;2023-03-13T17:58:53;2.80;;;1.70;;
14316;SDS011;7242;50.858;6.586;2023-03-13T18:01:56;3.57;;;1.50;;
14316;SDS011;7242;50.858;6.586;2023-03-13T18:04:57;3.07;;;1.40;;
14316;SDS011;7242;50.858;6.586;2023-03-13T18:07:58;4.67;;;1.53;;
14316;SDS011;7242;50.858;6.586;2023-03-13T18:10:59;3.33;;;1.27;;
14316;SDS011;7242;50.858;6.586;2023-03-13T18:14:00;4.27;;;1.60;;
14316;SDS011;7242;50.858;6.586;2023-03-13T18:17:05;4.27;;;1.77;;
14316;SDS011;7242;50.858;6.586;2023-03-13T18:20:18;5.77;;;1.70;;
14316;SDS011;7242;50.858;6.586;2023-03-13T18:23:24;4.40;;;1.77;;
14316;SDS011;7242;50.858;6.586;2023-03-13T18:26:28;3.47;;;1.70;;
14316;SDS011;7242;50.858;6.586;2023-03-13T18:29:33;6.67;;;2.10;;
14316;SDS011;7242;50.858;6.586;2023-03-13T18:32:34;2.97;;;1.70;;
14316;SDS011;7242;50.858;6.586;2023-03-13T18:35:34;4.43;;;1.70;;
14316;SDS011;7242;50.858;6.586;2023-03-13T18:38:36;5.07;;;2.00;;
14316;SDS011;7242;50.858;6.586;2023-03-13T18:41:36;3.90;;;1.40;;
14316;SDS011;7242;50.858;6.586;2023-03-13T18:44:37;4.20;;;1.47;;
14316;SDS011;7242;50.858;6.586;2023-03-13T18:47:38;3.33;;;1.43;;
14316;SDS011;7242;50.858;6.586;2023-03-13T18:50:39;4.20;;;1.77;;
14316;SDS011;7242;50.858;6.586;2023-03-13T18:53:39;4.13;;;1.93;;
14316;SDS011;7242;50.858;6.586;2023-03-13T18:56:42;4.13;;;1.50;;
14316;SDS011;7242;50.858;6.586;2023-03-13T18:59:43;4.40;;;1.63;;
14316;SDS011;7242;50.858;6.586;2023-03-13T19:02:44;4.17;;;1.60;;
14316;SDS011;7242;50.858;6.586;2023-03-13T19:05:45;5.67;;;1.80;;
14316;SDS011;7242;50.858;6.586;2023-03-13T19:08:47;3.43;;;1.60;;
14316;SDS011;7242;50.858;6.586;2023-03-13T19:11:49;4.10;;;1.90;;
14316;SDS011;7242;50.858;6.586;2023-03-13T19:14:50;4.20;;;1.60;;
14316;SDS011;7242;50.858;6.586;2023-03-13T19:17:51;3.43;;;1.70;;
14316;SDS011;7242;50.858;6.586;2023-03-13T19:20:54;4.23;;;1.70;;
14316;SDS011;7242;50.858;6.586;2023-03-13T19:23:55;5.20;;;1.90;;
14316;SDS011;7242;50.858;6.586;2023-03-13T19:26:56;5.07;;;2.00;;
14316;SDS011;7242;50.858;6.586;2023-03-13T19:30:00;6.93;;;2.03;;
14316;SDS011;7242;50.858;6.586;2023-03-13T19:33:01;4.33;;;1.70;;
14316;SDS011;7242;50.858;6.586;2023-03-13T19:36:02;4.07;;;1.80;;
14316;SDS011;7242;50.858;6.586;2023-03-13T19:39:03;4.90;;;1.80;;
14316;SDS011;7242;50.858;6.586;2023-03-13T19:42:11;4.40;;;1.80;;
14316;SDS011;7242;50.858;6.586;2023-03-13T19:45:12;2.73;;;1.80;;
14316;SDS011;7242;50.858;6.586;2023-03-13T19:48:13;4.90;;;1.97;;
14316;SDS011;7242;50.858;6.586;2023-03-13T19:51:14;5.13;;;1.90;;
14316;SDS011;7242;50.858;6.586;2023-03-13T19:54:15;5.17;;;1.90;;
14316;SDS011;7242;50.858;6.586;2023-03-13T19:57:16;5.63;;;2.03;;
14316;SDS011;7242;50.858;6.586;2023-03-13T20:00:21;5.20;;;1.90;;
14316;SDS011;7242;50.858;6.586;2023-03-13T20:03:24;7.20;;;1.80;;
14316;SDS011;7242;50.858;6.586;2023-03-13T20:06:29;4.23;;;1.90;;
14316;SDS011;7242;50.858;6.586;2023-03-13T20:09:31;4.77;;;1.87;;
14316;SDS011;7242;50.858;6.586;2023-03-13T20:12:32;4.60;;;2.17;;
14316;SDS011;7242;50.858;6.586;2023-03-13T20:15:34;6.60;;;2.33;;
14316;SDS011;7242;50.858;6.586;2023-03-13T20:18:35;7.23;;;2.10;;
14316;SDS011;7242;50.858;6.586;2023-03-13T20:21:36;4.53;;;2.00;;
14316;SDS011;7242;50.858;6.586;2023-03-13T20:24:41;4.40;;;1.90;;
14316;SDS011;7242;50.858;6.586;2023-03-13T20:27:42;4.97;;;2.30;;
14316;SDS011;7242;50.858;6.586;2023-03-13T20:30:43;3.67;;;1.90;;
14316;SDS011;7242;50.858;6.586;2023-03-13T20:33:44;3.63;;;1.90;;
14316;SDS011;7242;50.858;6.586;2023-03-13T20:36:45;5.70;;;2.40;;
14316;SDS011;7242;50.858;6.586;2023-03-13T20:39:46;7.30;;;2.17;;
14316;SDS011;7242;50.858;6.586;2023-03-13T20:42:47;5.33;;;1.93;;